Time;durP1;ratioP1;P1;durP2;ratioP2;P2;SDS_P1;SDS_P2;PMS_P1;PMS_P2;Temp;Humidity;BMP_temperature;BMP_pressure;BME280_temperature;BME280_humidity;BME280_pressure;Samples;Min_cycle;Max_cycle;Signal;HPM_P1;HPM_P2
2022/10/24 00:02:23;;;;;;;26.87;23.95;;;;;;;;;;1859714;76;21118;-82
2022/10/24 00:04:53;;;;;;;32.25;24.15;;;;;;;;;;1897233;75;21210;-82
2022/10/24 00:07:23;;;;;;;31.50;24.52;;;;;;;;;;1869923;76;21121;-84
2022/10/24 00:09:54;;;;;;;32.30;24.60;;;;;;;;;;1902124;74;21553;-83
2022/10/24 00:12:24;;;;;;;24.95;21.60;;;;;;;;;;1869634;76;21123;-83
2022/10/24 00:14:54;;;;;;;33.75;23.27;;;;;;;;;;1901820;74;21952;-82
2022/10/24 00:17:24;;;;;;;24.55;21.90;;;;;;;;;;1866381;76;21160;-83
2022/10/24 00:19:57;;;;;;;25.65;21.97;;;;;;;;;;1898024;75;21142;-83
2022/10/24 00:22:27;;;;;;;29.57;23.10;;;;;;;;;;1909192;75;21183;-83
2022/10/24 00:24:57;;;;;;;28.27;22.25;;;;;;;;;;1848928;76;21664;-82
2022/10/24 00:27:28;;;;;;;27.25;22.70;;;;;;;;;;1898832;75;21697;-83
2022/10/24 00:29:58;;;;;;;28.50;22.95;;;;;;;;;;1861221;76;21141;-83
2022/10/24 00:32:29;;;;;;;30.35;23.87;;;;;;;;;;1902802;74;21117;-84
2022/10/24 00:34:59;;;;;;;26.02;22.30;;;;;;;;;;1858690;75;21169;-82
2022/10/24 00:37:29;;;;;;;25.57;22.07;;;;;;;;;;1857869;76;21397;-83
2022/10/24 00:39:59;;;;;;;29.50;23.67;;;;;;;;;;1860214;76;21219;-84
2022/10/24 00:42:30;;;;;;;27.65;23.35;;;;;;;;;;1907187;74;21042;-83
2022/10/24 00:45:01;;;;;;;26.45;23.05;;;;;;;;;;1860872;76;21235;-81
2022/10/24 00:47:31;;;;;;;31.23;24.25;;;;;;;;;;1854847;76;21157;-82
2022/10/24 00:50:06;;;;;;;26.87;23.95;;;;;;;;;;1902925;74;21167;-82
2022/10/24 00:52:37;;;;;;;26.87;23.20;;;;;;;;;;1862535;75;21216;-83
2022/10/24 00:55:08;;;;;;;33.88;26.10;;;;;;;;;;1876743;75;21084;-84
2022/10/24 00:57:39;;;;;;;25.15;22.48;;;;;;;;;;1888217;75;21612;-84
2022/10/24 01:00:11;;;;;;;30.72;25.70;;;;;;;;;;1891163;75;21177;-83
2022/10/24 01:02:42;;;;;;;29.23;24.52;;;;;;;;;;1878178;74;21141;-83
2022/10/24 01:05:13;;;;;;;30.88;25.75;;;;;;;;;;1893013;73;21098;-83
2022/10/24 01:07:49;;;;;;;28.75;23.30;;;;;;;;;;1891749;75;21162;-82
2022/10/24 01:10:30;;;;;;;27.65;23.57;;;;;;;;;;1893488;74;21136;-84
2022/10/24 01:13:14;;;;;;;24.02;20.50;;;;;;;;;;1879195;75;21223;-81
2022/10/24 01:15:45;;;;;;;25.88;19.87;;;;;;;;;;1834123;77;21227;-78
2022/10/24 01:18:23;;;;;;;26.07;18.80;;;;;;;;;;1888091;75;22153;-76
2022/10/24 01:20:55;;;;;;;24.77;20.20;;;;;;;;;;1886140;73;21180;-76
2022/10/24 01:23:41;;;;;;;23.30;19.67;;;;;;;;;;1880521;75;21577;-77
2022/10/24 01:26:29;;;;;;;22.20;18.90;;;;;;;;;;1877265;75;21161;-77
2022/10/24 01:29:07;;;;;;;25.80;19.35;;;;;;;;;;1881275;74;21172;-76
2022/10/24 01:31:47;;;;;;;23.00;20.30;;;;;;;;;;1890683;75;21076;-76
2022/10/24 01:34:19;;;;;;;89.32;25.48;;;;;;;;;;1885965;75;22365;-77
2022/10/24 01:36:50;;;;;;;19.55;17.45;;;;;;;;;;1881211;74;21231;-78
2022/10/24 01:39:22;;;;;;;19.32;17.23;;;;;;;;;;1888265;75;21208;-77
2022/10/24 01:41:53;;;;;;;19.10;16.42;;;;;;;;;;1836240;77;21672;-73
2022/10/24 01:44:25;;;;;;;18.07;15.40;;;;;;;;;;1885505;75;21244;-77
2022/10/24 01:46:56;;;;;;;18.50;16.00;;;;;;;;;;1879683;74;21797;-74
2022/10/24 01:49:28;;;;;;;15.30;13.78;;;;;;;;;;1881876;75;21768;-76
2022/10/24 01:51:59;;;;;;;17.82;14.68;;;;;;;;;;1893036;75;21144;-76
2022/10/24 01:54:31;;;;;;;21.40;15.65;;;;;;;;;;1894495;75;21204;-77
2022/10/24 01:57:04;;;;;;;20.25;14.75;;;;;;;;;;1859558;76;21188;-77
2022/10/24 01:59:45;;;;;;;18.77;15.10;;;;;;;;;;1891218;74;21659;-77
2022/10/24 02:02:17;;;;;;;18.12;13.98;;;;;;;;;;1855698;76;21605;-75
2022/10/24 02:04:48;;;;;;;17.07;14.20;;;;;;;;;;1856225;76;21228;-77
2022/10/24 02:07:21;;;;;;;16.73;14.85;;;;;;;;;;1902582;74;21673;-77
2022/10/24 02:09:53;;;;;;;15.75;14.00;;;;;;;;;;1888538;73;21218;-78
2022/10/24 02:12:25;;;;;;;18.98;13.65;;;;;;;;;;1869797;74;21231;-76
2022/10/24 02:14:58;;;;;;;17.15;14.53;;;;;;;;;;1870963;75;21129;-78
2022/10/24 02:17:31;;;;;;;19.32;14.18;;;;;;;;;;1870242;76;21718;-76
2022/10/24 02:20:02;;;;;;;17.35;14.15;;;;;;;;;;1872521;76;21136;-76
2022/10/24 02:22:51;;;;;;;18.30;14.13;;;;;;;;;;1879695;75;21144;-78
2022/10/24 02:25:24;;;;;;;17.75;14.55;;;;;;;;;;1808121;76;21198;-78
2022/10/24 02:27:55;;;;;;;18.40;14.75;;;;;;;;;;1877167;75;21183;-77
2022/10/24 02:30:30;;;;;;;16.02;13.32;;;;;;;;;;1880168;75;21217;-79
2022/10/24 02:33:00;;;;;;;15.75;13.38;;;;;;;;;;1871502;76;21226;-78
2022/10/24 02:35:32;;;;;;;17.92;13.80;;;;;;;;;;1874213;75;21215;-75
2022/10/24 02:38:03;;;;;;;15.78;13.10;;;;;;;;;;1874473;76;21097;-76
2022/10/24 02:40:36;;;;;;;19.42;13.03;;;;;;;;;;1876871;75;21600;-76
2022/10/24 02:43:08;;;;;;;15.98;13.55;;;;;;;;;;1865277;75;21602;-80
2022/10/24 02:45:39;;;;;;;14.45;12.98;;;;;;;;;;1872247;74;21567;-77
2022/10/24 02:48:10;;;;;;;15.40;13.00;;;;;;;;;;1875264;76;21136;-76
2022/10/24 02:50:43;;;;;;;16.57;12.45;;;;;;;;;;1877706;75;21109;-78
2022/10/24 02:53:15;;;;;;;17.92;13.08;;;;;;;;;;1874137;75;21167;-79
2022/10/24 02:55:46;;;;;;;16.67;12.40;;;;;;;;;;1913135;73;21226;-77
2022/10/24 02:58:21;;;;;;;18.67;13.05;;;;;;;;;;1904902;73;21168;-76
2022/10/24 03:00:56;;;;;;;15.30;12.15;;;;;;;;;;1912101;73;21142;-78
2022/10/24 03:03:29;;;;;;;20.02;11.63;;;;;;;;;;1877074;73;21256;-77
2022/10/24 03:05:59;;;;;;;12.35;10.70;;;;;;;;;;1863772;75;21449;-79
2022/10/24 03:08:30;;;;;;;16.02;11.15;;;;;;;;;;1852047;75;21135;-76
2022/10/24 03:11:00;;;;;;;14.13;10.65;;;;;;;;;;1870528;75;21235;-78
2022/10/24 03:13:30;;;;;;;12.68;10.78;;;;;;;;;;1913168;73;21185;-76
2022/10/24 03:16:00;;;;;;;17.32;11.53;;;;;;;;;;1909858;73;21214;-76
2022/10/24 03:18:31;;;;;;;12.80;9.75;;;;;;;;;;1902385;75;21587;-77
2022/10/24 03:21:04;;;;;;;14.87;10.28;;;;;;;;;;1909484;73;21165;-77
2022/10/24 03:23:35;;;;;;;12.07;9.75;;;;;;;;;;1913513;73;21032;-78
2022/10/24 03:26:05;;;;;;;13.55;9.63;;;;;;;;;;1906805;73;21141;-76
2022/10/24 03:28:35;;;;;;;11.60;9.95;;;;;;;;;;1916795;73;21139;-76
2022/10/24 03:31:06;;;;;;;12.55;9.53;;;;;;;;;;1925303;73;21248;-79
2022/10/24 03:33:36;;;;;;;11.10;9.63;;;;;;;;;;1904351;73;21611;-78
2022/10/24 03:36:06;;;;;;;15.68;9.83;;;;;;;;;;1904413;73;21166;-75
2022/10/24 03:38:38;;;;;;;15.55;9.50;;;;;;;;;;1915861;73;21083;-78
2022/10/24 03:41:09;;;;;;;19.32;10.35;;;;;;;;;;1908222;73;21667;-75
2022/10/24 03:43:39;;;;;;;13.70;10.05;;;;;;;;;;1914595;73;21190;-76
2022/10/24 03:46:09;;;;;;;14.87;9.83;;;;;;;;;;1914822;73;21105;-77
2022/10/24 03:48:39;;;;;;;12.75;9.60;;;;;;;;;;1917026;73;21093;-76
2022/10/24 03:51:10;;;;;;;13.48;10.03;;;;;;;;;;1914092;73;21106;-76
2022/10/24 03:53:40;;;;;;;10.85;9.68;;;;;;;;;;1918946;73;21154;-77
2022/10/24 03:56:10;;;;;;;12.45;9.43;;;;;;;;;;1915120;73;21174;-76
2022/10/24 03:58:41;;;;;;;12.18;9.58;;;;;;;;;;1900339;74;21139;-76
2022/10/24 04:01:16;;;;;;;13.15;9.35;;;;;;;;;;1901964;73;21148;-76
2022/10/24 04:03:43;;;;;;;13.15;9.73;;;;;;;;;;1905620;74;21151;-76
2022/10/24 04:06:14;;;;;;;10.68;9.30;;;;;;;;;;1902488;73;21048;-75
2022/10/24 04:08:45;;;;;;;11.38;8.70;;;;;;;;;;1908417;74;21591;-77
2022/10/24 04:11:15;;;;;;;15.15;9.80;;;;;;;;;;1916598;73;21073;-75
2022/10/24 04:13:46;;;;;;;12.63;9.58;;;;;;;;;;1902005;74;21068;-76
2022/10/24 04:16:17;;;;;;;10.80;8.75;;;;;;;;;;1900985;75;21068;-77
2022/10/24 04:18:47;;;;;;;10.48;7.83;;;;;;;;;;1902659;74;21260;-77
2022/10/24 04:21:18;;;;;;;10.75;8.10;;;;;;;;;;1907667;73;21135;-77
2022/10/24 04:23:49;;;;;;;10.72;8.63;;;;;;;;;;1920372;74;21531;-76
2022/10/24 04:26:20;;;;;;;13.15;8.43;;;;;;;;;;1902477;74;21146;-76
2022/10/24 04:28:50;;;;;;;12.20;8.55;;;;;;;;;;1895179;75;21106;-76
2022/10/24 04:31:20;;;;;;;22.10;9.43;;;;;;;;;;1911895;75;21087;-77
2022/10/24 04:33:51;;;;;;;11.15;8.88;;;;;;;;;;1912051;75;21083;-76
2022/10/24 04:36:22;;;;;;;12.20;8.33;;;;;;;;;;1906160;75;21159;-77
2022/10/24 04:38:52;;;;;;;13.08;8.35;;;;;;;;;;1897063;75;21281;-75
2022/10/24 04:41:23;;;;;;;10.58;8.25;;;;;;;;;;1904612;74;21120;-76
2022/10/24 04:43:54;;;;;;;12.53;9.05;;;;;;;;;;1901169;75;21111;-76
2022/10/24 04:46:24;;;;;;;12.43;8.58;;;;;;;;;;1905133;75;21108;-78
2022/10/24 04:48:54;;;;;;;9.75;8.05;;;;;;;;;;1857497;77;21127;-79
2022/10/24 04:51:25;;;;;;;11.28;8.58;;;;;;;;;;1905521;75;21114;-76
2022/10/24 04:53:55;;;;;;;18.37;8.33;;;;;;;;;;1904927;75;21696;-76
2022/10/24 04:56:26;;;;;;;12.05;8.93;;;;;;;;;;1875891;75;21193;-76
2022/10/24 04:58:56;;;;;;;10.95;8.68;;;;;;;;;;1886867;74;21618;-76
2022/10/24 05:01:27;;;;;;;9.65;8.28;;;;;;;;;;1892126;73;21210;-77
2022/10/24 05:03:57;;;;;;;10.90;8.73;;;;;;;;;;1906075;74;21138;-77
2022/10/24 05:06:28;;;;;;;12.30;9.13;;;;;;;;;;1897613;74;21109;-75
2022/10/24 05:08:58;;;;;;;11.38;8.65;;;;;;;;;;1857157;76;21616;-74
2022/10/24 05:11:28;;;;;;;11.00;8.45;;;;;;;;;;1820205;77;21174;-78
2022/10/24 05:13:59;;;;;;;10.75;8.23;;;;;;;;;;1900188;74;21122;-75
2022/10/24 05:16:30;;;;;;;10.65;8.30;;;;;;;;;;1893986;74;21200;-77
2022/10/24 05:19:01;;;;;;;13.62;8.90;;;;;;;;;;1877493;75;21161;-77
2022/10/24 05:21:32;;;;;;;10.65;7.90;;;;;;;;;;1861716;76;21231;-76
2022/10/24 05:24:02;;;;;;;13.03;8.55;;;;;;;;;;1873751;76;21083;-76
2022/10/24 05:26:32;;;;;;;12.10;8.30;;;;;;;;;;1865071;75;21190;-76
2022/10/24 05:29:07;;;;;;;8.88;7.97;;;;;;;;;;1902457;74;21102;-76
2022/10/24 05:31:38;;;;;;;10.70;8.28;;;;;;;;;;1901042;73;21131;-77
2022/10/24 05:34:08;;;;;;;15.23;8.70;;;;;;;;;;1892673;74;21222;-77
2022/10/24 05:36:38;;;;;;;12.63;7.95;;;;;;;;;;1900338;74;21166;-75
2022/10/24 05:39:09;;;;;;;12.10;8.78;;;;;;;;;;1894773;74;21598;-75
2022/10/24 05:41:39;;;;;;;11.97;8.55;;;;;;;;;;1894818;73;21127;-77
2022/10/24 05:44:17;;;;;;;14.15;8.33;;;;;;;;;;1896519;74;21102;-76
2022/10/24 05:46:44;;;;;;;12.23;8.40;;;;;;;;;;1894218;74;21177;-76
2022/10/24 05:49:14;;;;;;;12.78;7.83;;;;;;;;;;1869530;76;21126;-78
2022/10/24 05:51:44;;;;;;;10.82;7.97;;;;;;;;;;1887346;75;21653;-77
2022/10/24 05:54:14;;;;;;;13.58;8.43;;;;;;;;;;1890781;74;21188;-77
2022/10/24 05:56:45;;;;;;;11.45;7.95;;;;;;;;;;1898990;74;21128;-76
2022/10/24 05:59:15;;;;;;;11.35;8.30;;;;;;;;;;1898536;74;21710;-77
2022/10/24 06:01:45;;;;;;;10.30;8.45;;;;;;;;;;1901080;74;21127;-75
2022/10/24 06:04:16;;;;;;;12.10;7.90;;;;;;;;;;1908861;74;21207;-77
2022/10/24 06:06:46;;;;;;;11.05;8.88;;;;;;;;;;1906609;74;21193;-79
2022/10/24 06:09:16;;;;;;;11.53;8.55;;;;;;;;;;1912208;74;21064;-77
2022/10/24 06:11:47;;;;;;;11.83;8.18;;;;;;;;;;1912940;74;21208;-75
2022/10/24 06:14:17;;;;;;;15.08;8.55;;;;;;;;;;1911949;74;21645;-75
2022/10/24 06:16:48;;;;;;;10.65;8.33;;;;;;;;;;1919844;74;21198;-76
2022/10/24 06:19:20;;;;;;;11.75;7.67;;;;;;;;;;1917081;74;21124;-77
2022/10/24 06:21:50;;;;;;;10.78;8.03;;;;;;;;;;1907053;74;21128;-76
2022/10/24 06:24:20;;;;;;;9.78;8.20;;;;;;;;;;1899169;74;22159;-76
2022/10/24 06:26:53;;;;;;;9.20;8.20;;;;;;;;;;1893689;74;21067;-77
2022/10/24 06:29:24;;;;;;;14.95;8.10;;;;;;;;;;1893868;74;21174;-76
2022/10/24 06:31:55;;;;;;;12.98;8.73;;;;;;;;;;1894897;74;21189;-76
2022/10/24 06:34:25;;;;;;;9.68;8.08;;;;;;;;;;1908582;74;21143;-77
2022/10/24 06:36:56;;;;;;;10.78;8.08;;;;;;;;;;1904406;74;21134;-76
2022/10/24 06:39:26;;;;;;;14.28;7.92;;;;;;;;;;1895629;74;21066;-76
2022/10/24 06:41:56;;;;;;;9.65;7.62;;;;;;;;;;1897345;74;21538;-78
2022/10/24 06:44:27;;;;;;;9.78;7.97;;;;;;;;;;1888777;74;21159;-77
2022/10/24 06:46:57;;;;;;;12.00;7.75;;;;;;;;;;1890320;75;21795;-77
2022/10/24 06:49:28;;;;;;;10.03;8.20;;;;;;;;;;1890706;74;21655;-77
2022/10/24 06:51:58;;;;;;;10.30;7.95;;;;;;;;;;1895180;75;21037;-77
2022/10/24 06:54:29;;;;;;;9.43;7.65;;;;;;;;;;1895117;75;21193;-77
2022/10/24 06:57:00;;;;;;;10.38;8.58;;;;;;;;;;1886607;74;21247;-76
2022/10/24 06:59:30;;;;;;;12.35;8.73;;;;;;;;;;1888304;74;21188;-78
2022/10/24 07:02:01;;;;;;;13.13;8.50;;;;;;;;;;1898741;74;21663;-78
2022/10/24 07:04:33;;;;;;;11.00;8.20;;;;;;;;;;1888934;74;21130;-77
2022/10/24 07:07:03;;;;;;;11.85;8.30;;;;;;;;;;1900902;74;21145;-77
2022/10/24 07:09:34;;;;;;;12.47;7.95;;;;;;;;;;1907818;74;21122;-78
2022/10/24 07:12:04;;;;;;;9.40;8.10;;;;;;;;;;1904184;74;21169;-78
2022/10/24 07:14:35;;;;;;;14.75;8.33;;;;;;;;;;1906975;73;21160;-79
2022/10/24 07:17:07;;;;;;;12.80;7.85;;;;;;;;;;1899997;74;21149;-77
2022/10/24 07:19:37;;;;;;;11.80;7.60;;;;;;;;;;1898091;73;21174;-77
2022/10/24 07:22:07;;;;;;;11.75;8.30;;;;;;;;;;1905127;74;21172;-78
2022/10/24 07:24:38;;;;;;;12.28;8.15;;;;;;;;;;1901584;74;21174;-78
2022/10/24 07:27:08;;;;;;;10.88;8.08;;;;;;;;;;1907340;74;21126;-78
2022/10/24 07:29:39;;;;;;;11.30;8.50;;;;;;;;;;1897323;74;21209;-77
2022/10/24 07:32:10;;;;;;;9.73;8.08;;;;;;;;;;1892784;73;21176;-78
2022/10/24 07:34:41;;;;;;;11.28;8.40;;;;;;;;;;1886926;73;21654;-76
2022/10/24 07:37:11;;;;;;;9.15;7.78;;;;;;;;;;1902748;74;21578;-77
2022/10/24 07:39:45;;;;;;;11.75;8.00;;;;;;;;;;1900691;74;22109;-76
2022/10/24 07:42:15;;;;;;;11.70;7.78;;;;;;;;;;1895491;74;21232;-77
2022/10/24 07:44:45;;;;;;;10.43;8.13;;;;;;;;;;1889201;74;21071;-77
2022/10/24 07:47:15;;;;;;;9.00;7.97;;;;;;;;;;1906494;74;21177;-77
2022/10/24 07:49:46;;;;;;;11.35;7.97;;;;;;;;;;1903023;74;21239;-77
2022/10/24 07:52:16;;;;;;;13.48;7.95;;;;;;;;;;1902298;73;21211;-78
2022/10/24 07:54:47;;;;;;;11.20;7.90;;;;;;;;;;1904486;74;21157;-77
2022/10/24 07:57:18;;;;;;;10.60;7.97;;;;;;;;;;1910756;74;21111;-77
2022/10/24 07:59:48;;;;;;;11.28;7.62;;;;;;;;;;1901806;74;21056;-76
2022/10/24 08:02:19;;;;;;;8.88;7.70;;;;;;;;;;1909438;74;21071;-76
2022/10/24 08:04:49;;;;;;;10.55;7.83;;;;;;;;;;1901345;74;21181;-77
2022/10/24 08:07:21;;;;;;;11.60;8.10;;;;;;;;;;1895463;75;21710;-77
2022/10/24 08:09:51;;;;;;;9.15;7.50;;;;;;;;;;1891591;75;21586;-78
2022/10/24 08:12:21;;;;;;;8.65;7.33;;;;;;;;;;1912000;74;21155;-77
2022/10/24 08:14:54;;;;;;;11.65;7.78;;;;;;;;;;1896451;74;21083;-76
2022/10/24 08:17:24;;;;;;;11.20;7.58;;;;;;;;;;1905503;74;21181;-79
2022/10/24 08:19:54;;;;;;;12.03;8.05;;;;;;;;;;1912922;74;21178;-76
2022/10/24 08:22:25;;;;;;;10.55;8.50;;;;;;;;;;1910830;74;21093;-77
2022/10/24 08:25:00;;;;;;;11.83;7.72;;;;;;;;;;1907821;74;21199;-78
2022/10/24 08:27:33;;;;;;;12.37;7.85;;;;;;;;;;1900277;74;21732;-78
2022/10/24 08:30:04;;;;;;;11.43;7.78;;;;;;;;;;1912366;74;21173;-79
2022/10/24 08:32:37;;;;;;;8.35;7.40;;;;;;;;;;1839248;77;21206;-80
2022/10/24 08:35:09;;;;;;;10.75;8.03;;;;;;;;;;1801674;78;21193;-81
2022/10/24 08:37:41;;;;;;;11.05;7.53;;;;;;;;;;1789375;79;21139;-77
2022/10/24 08:40:16;;;;;;;12.82;7.97;;;;;;;;;;1832205;77;22015;-77
2022/10/24 08:42:47;;;;;;;11.10;7.37;;;;;;;;;;1842459;77;21132;-77
2022/10/24 08:45:18;;;;;;;10.88;7.25;;;;;;;;;;1835845;77;21060;-79
2022/10/24 08:47:59;;;;;;;9.55;7.65;;;;;;;;;;1869718;75;21599;-78
2022/10/24 08:50:30;;;;;;;10.38;7.83;;;;;;;;;;1905507;74;21142;-80
2022/10/24 08:53:02;;;;;;;15.15;9.45;;;;;;;;;;1904875;74;21088;-79
2022/10/24 08:55:40;;;;;;;11.97;9.05;;;;;;;;;;1902579;74;21108;-78
2022/10/24 08:58:16;;;;;;;11.05;8.48;;;;;;;;;;1871476;75;21279;-77
2022/10/24 09:00:48;;;;;;;13.13;8.68;;;;;;;;;;1873335;76;21614;-77
2022/10/24 09:03:35;;;;;;;11.48;8.03;;;;;;;;;;1871289;76;21618;-79
2022/10/24 09:06:12;;;;;;;10.18;7.97;;;;;;;;;;1879422;74;21206;-76
2022/10/24 09:08:46;;;;;;;11.83;8.33;;;;;;;;;;1874683;76;21134;-79
2022/10/24 09:11:30;;;;;;;9.25;7.78;;;;;;;;;;1881801;75;21138;-78
2022/10/24 09:14:02;;;;;;;10.45;8.28;;;;;;;;;;1884819;75;21189;-78
2022/10/24 09:16:32;;;;;;;10.82;8.33;;;;;;;;;;1880872;75;21138;-77
2022/10/24 09:19:03;;;;;;;11.68;7.67;;;;;;;;;;1885341;74;21411;-76
2022/10/24 09:21:33;;;;;;;11.68;7.92;;;;;;;;;;1884283;75;21128;-77
2022/10/24 09:24:04;;;;;;;13.95;8.35;;;;;;;;;;1885492;75;21184;-80
2022/10/24 09:26:37;;;;;;;9.48;7.90;;;;;;;;;;1889222;75;21138;-76
2022/10/24 09:29:07;;;;;;;15.48;8.50;;;;;;;;;;1882965;75;21145;-79
2022/10/24 09:31:37;;;;;;;10.53;7.75;;;;;;;;;;1880502;75;21116;-78
2022/10/24 09:34:18;;;;;;;11.08;8.15;;;;;;;;;;1886995;75;21151;-78
2022/10/24 09:36:49;;;;;;;15.65;8.95;;;;;;;;;;1888469;74;21598;-77
2022/10/24 09:39:24;;;;;;;11.25;8.45;;;;;;;;;;1885271;75;21218;-76
2022/10/24 09:41:55;;;;;;;9.73;8.73;;;;;;;;;;1888470;75;21120;-78
2022/10/24 09:44:32;;;;;;;15.78;9.18;;;;;;;;;;1874981;75;21160;-78
2022/10/24 09:47:04;;;;;;;9.38;8.38;;;;;;;;;;1876663;75;21168;-78
2022/10/24 09:49:40;;;;;;;12.18;9.15;;;;;;;;;;1888464;74;21107;-77
2022/10/24 09:52:20;;;;;;;11.12;9.28;;;;;;;;;;1892068;75;21147;-77
2022/10/24 09:54:52;;;;;;;12.53;9.30;;;;;;;;;;1887108;75;21091;-77
2022/10/24 09:57:22;;;;;;;11.55;8.75;;;;;;;;;;1852568;73;21169;-77
2022/10/24 10:00:01;;;;;;;11.08;8.40;;;;;;;;;;1871147;76;21384;-76
2022/10/24 10:02:42;;;;;;;10.43;8.70;;;;;;;;;;1877793;76;21196;-77
2022/10/24 10:05:13;;;;;;;12.58;9.08;;;;;;;;;;1873238;76;21204;-78
2022/10/24 10:07:47;;;;;;;13.43;9.05;;;;;;;;;;1887668;75;21146;-75
2022/10/24 10:10:20;;;;;;;13.28;8.60;;;;;;;;;;1882508;75;21237;-77
2022/10/24 10:12:57;;;;;;;12.30;9.35;;;;;;;;;;1881468;75;21616;-77
2022/10/24 10:15:41;;;;;;;13.50;9.33;;;;;;;;;;1873353;75;21122;-78
2022/10/24 10:18:22;;;;;;;13.68;8.33;;;;;;;;;;1888608;75;21150;-77
2022/10/24 10:21:00;;;;;;;11.22;9.30;;;;;;;;;;1877874;75;21103;-77
2022/10/24 10:23:31;;;;;;;10.93;9.00;;;;;;;;;;1888723;75;21758;-79
2022/10/24 10:26:03;;;;;;;10.70;9.60;;;;;;;;;;1896397;74;21193;-76
2022/10/24 10:28:34;;;;;;;13.30;10.08;;;;;;;;;;1905031;74;21224;-77
2022/10/24 10:31:05;;;;;;;11.33;10.13;;;;;;;;;;1898098;74;21161;-78
2022/10/24 10:33:52;;;;;;;10.40;9.30;;;;;;;;;;1891616;74;21547;-76
2022/10/24 10:36:26;;;;;;;11.83;9.60;;;;;;;;;;1900381;74;21154;-78
2022/10/24 10:39:01;;;;;;;11.60;9.90;;;;;;;;;;1904204;74;21173;-76
2022/10/24 10:41:35;;;;;;;10.98;9.83;;;;;;;;;;1908526;74;21130;-76
2022/10/24 10:44:09;;;;;;;13.25;9.40;;;;;;;;;;1905084;74;21137;-79
2022/10/24 10:46:50;;;;;;;11.97;9.58;;;;;;;;;;1891235;74;21164;-77
2022/10/24 10:49:31;;;;;;;13.10;10.13;;;;;;;;;;1899564;74;21176;-77
2022/10/24 10:52:08;;;;;;;15.25;10.15;;;;;;;;;;1876468;76;21192;-78
2022/10/24 10:54:42;;;;;;;13.45;11.05;;;;;;;;;;1892010;74;21130;-79
2022/10/24 10:57:14;;;;;;;12.88;10.45;;;;;;;;;;1903582;74;21169;-77
2022/10/24 10:59:46;;;;;;;16.50;11.05;;;;;;;;;;1891049;74;21192;-79
2022/10/24 11:02:18;;;;;;;12.40;11.10;;;;;;;;;;1901863;74;21768;-78
2022/10/24 11:04:53;;;;;;;19.98;12.98;;;;;;;;;;1887143;74;21102;-79
2022/10/24 11:07:24;;;;;;;13.95;11.22;;;;;;;;;;1897734;74;21606;-76
2022/10/24 11:09:56;;;;;;;21.20;11.75;;;;;;;;;;1903745;74;21188;-77
2022/10/24 11:12:31;;;;;;;16.73;13.55;;;;;;;;;;1868389;76;21229;-78
2022/10/24 11:15:22;;;;;;;18.70;14.30;;;;;;;;;;1873814;75;21157;-78
2022/10/24 11:17:56;;;;;;;16.45;13.62;;;;;;;;;;1881334;76;21590;-78
2022/10/24 11:20:28;;;;;;;17.20;12.73;;;;;;;;;;1865809;76;21143;-77
2022/10/24 11:23:06;;;;;;;17.73;12.40;;;;;;;;;;1889051;74;21130;-76
2022/10/24 11:25:54;;;;;;;19.50;14.33;;;;;;;;;;1903856;74;21161;-77
2022/10/24 11:28:35;;;;;;;16.00;13.48;;;;;;;;;;1871569;74;21219;-76
2022/10/24 11:31:10;;;;;;;26.93;13.95;;;;;;;;;;1894046;74;21075;-77
2022/10/24 11:33:45;;;;;;;22.80;14.20;;;;;;;;;;1907218;74;21063;-76
2022/10/24 11:36:22;;;;;;;22.75;14.33;;;;;;;;;;1905677;74;21083;-77
2022/10/24 11:39:03;;;;;;;17.00;13.25;;;;;;;;;;1882522;74;21131;-78
2022/10/24 11:41:34;;;;;;;23.20;14.25;;;;;;;;;;1887111;74;21601;-77
2022/10/24 11:44:25;;;;;;;18.80;14.23;;;;;;;;;;1884672;76;21091;-76
2022/10/24 11:47:12;;;;;;;21.42;15.03;;;;;;;;;;1875386;76;21218;-78
2022/10/24 11:49:44;;;;;;;18.15;14.10;;;;;;;;;;1889615;76;21169;-77
2022/10/24 11:52:16;;;;;;;21.42;14.98;;;;;;;;;;1917549;74;21157;-77
2022/10/24 11:54:56;;;;;;;20.00;14.60;;;;;;;;;;1892942;74;21174;-86
2022/10/24 11:57:28;;;;;;;22.62;15.48;;;;;;;;;;1889428;75;21130;-86
2022/10/24 11:59:59;;;;;;;17.92;14.83;;;;;;;;;;1879407;74;21086;-87
2022/10/24 12:02:37;;;;;;;20.15;15.13;;;;;;;;;;1868668;76;21186;-88
2022/10/24 12:05:11;;;;;;;19.17;15.50;;;;;;;;;;1850773;76;21621;-88
2022/10/24 12:07:57;;;;;;;22.58;16.10;;;;;;;;;;1879328;74;21203;-87
2022/10/24 12:10:31;;;;;;;23.20;16.40;;;;;;;;;;1887426;76;21141;-87
2022/10/24 12:13:19;;;;;;;20.08;16.25;;;;;;;;;;1885748;76;21176;-86
2022/10/24 12:16:07;;;;;;;21.27;16.90;;;;;;;;;;1889253;75;21162;-86
2022/10/24 12:18:39;;;;;;;23.55;18.17;;;;;;;;;;1881721;76;21173;-87
2022/10/24 12:21:10;;;;;;;23.50;18.60;;;;;;;;;;1878888;74;21202;-88
2022/10/24 12:23:41;;;;;;;26.87;20.12;;;;;;;;;;1897101;74;21138;-87
2022/10/24 12:26:19;;;;;;;22.45;18.57;;;;;;;;;;1890131;74;21144;-88
2022/10/24 12:29:01;;;;;;;24.05;19.12;;;;;;;;;;1864023;75;21593;-87
2022/10/24 12:31:32;;;;;;;27.50;19.92;;;;;;;;;;1898080;74;21109;-87
2022/10/24 12:34:18;;;;;;;26.52;18.73;;;;;;;;;;1897870;74;21113;-88
2022/10/24 12:37:02;;;;;;;26.33;19.50;;;;;;;;;;1889474;74;21671;-88
2022/10/24 12:39:36;;;;;;;27.13;21.02;;;;;;;;;;1888870;74;21148;-88
2022/10/24 12:42:07;;;;;;;29.40;21.15;;;;;;;;;;1879537;76;21589;-88
2022/10/24 12:44:40;;;;;;;30.50;21.62;;;;;;;;;;1881196;76;21114;-88
2022/10/24 12:47:29;;;;;;;31.02;21.35;;;;;;;;;;1898874;74;21059;-87
2022/10/24 12:50:00;;;;;;;33.02;22.40;;;;;;;;;;1909999;74;21165;-87
2022/10/24 12:52:35;;;;;;;28.23;22.40;;;;;;;;;;1885198;74;21079;-88
2022/10/24 12:55:07;;;;;;;27.00;21.82;;;;;;;;;;1921468;74;21127;-87
2022/10/24 12:57:39;;;;;;;26.20;21.40;;;;;;;;;;1875106;75;21232;-88
2022/10/24 13:00:22;;;;;;;28.05;19.50;;;;;;;;;;1903884;74;21140;-88
2022/10/24 13:02:54;;;;;;;32.50;21.77;;;;;;;;;;1912646;74;21043;-84
2022/10/24 13:05:25;;;;;;;29.32;23.47;;;;;;;;;;1886296;74;21205;-82
2022/10/24 13:08:01;;;;;;;30.32;22.93;;;;;;;;;;1875114;75;21172;-85
2022/10/24 13:10:30;;;;;;;24.70;20.43;;;;;;;;;;1904541;75;21091;-83
2022/10/24 13:13:05;;;;;;;37.38;24.07;;;;;;;;;;1902300;75;21056;-86
2022/10/24 13:15:47;;;;;;;29.85;24.07;;;;;;;;;;1883413;74;21211;-85
2022/10/24 13:18:28;;;;;;;25.80;20.88;;;;;;;;;;1898734;75;21181;-85
2022/10/24 13:21:15;;;;;;;30.30;23.27;;;;;;;;;;1881453;75;21161;-83
2022/10/24 13:23:46;;;;;;;34.45;24.37;;;;;;;;;;1892438;75;21116;-84
2022/10/24 13:26:50;;;;;;;29.90;23.77;;;;;;;;;;1893751;76;21163;-84
2022/10/24 13:29:29;;;;;;;29.63;22.37;;;;;;;;;;1897120;75;21131;-84
2022/10/24 13:32:06;;;;;;;29.80;21.27;;;;;;;;;;1896735;75;21625;-85
2022/10/24 13:34:43;;;;;;;31.48;23.50;;;;;;;;;;1886010;74;21431;-85
2022/10/24 13:37:17;;;;;;;32.67;23.65;;;;;;;;;;1881615;75;21117;-85
2022/10/24 13:39:52;;;;;;;31.48;22.98;;;;;;;;;;1884654;75;22091;-85
2022/10/24 13:42:38;;;;;;;32.48;22.77;;;;;;;;;;1878896;75;21130;-84
2022/10/24 13:45:22;;;;;;;30.05;21.50;;;;;;;;;;1872773;76;21519;-83
2022/10/24 13:47:54;;;;;;;33.42;23.70;;;;;;;;;;1893839;75;21088;-87
2022/10/24 13:50:41;;;;;;;33.48;24.20;;;;;;;;;;1892736;75;21635;-83
2022/10/24 13:53:17;;;;;;;29.48;23.32;;;;;;;;;;1893737;74;21098;-84
2022/10/24 13:55:50;;;;;;;29.75;23.38;;;;;;;;;;1895036;74;21167;-83
2022/10/24 13:58:25;;;;;;;29.87;23.05;;;;;;;;;;1916619;74;21560;-85
2022/10/24 14:00:56;;;;;;;31.60;23.73;;;;;;;;;;1899930;75;21142;-84
2022/10/24 14:03:29;;;;;;;27.65;22.10;;;;;;;;;;1900591;74;21169;-83
2022/10/24 14:06:00;;;;;;;34.15;24.67;;;;;;;;;;1891087;76;21686;-83
2022/10/24 14:08:31;;;;;;;32.73;23.65;;;;;;;;;;1890879;75;21193;-83
2022/10/24 14:11:03;;;;;;;33.63;25.70;;;;;;;;;;1903896;74;21546;-84
2022/10/24 14:13:37;;;;;;;35.23;26.05;;;;;;;;;;1903352;74;21145;-83
2022/10/24 14:16:08;;;;;;;32.28;25.08;;;;;;;;;;1880523;75;21655;-85
2022/10/24 14:18:40;;;;;;;33.85;27.02;;;;;;;;;;1864128;76;21212;-84
2022/10/24 14:21:20;;;;;;;43.63;29.23;;;;;;;;;;1859766;76;21192;-83
2022/10/24 14:23:57;;;;;;;36.48;26.60;;;;;;;;;;1868062;76;21154;-83
2022/10/24 14:26:37;;;;;;;36.13;27.30;;;;;;;;;;1872252;75;21166;-82
2022/10/24 14:29:12;;;;;;;37.23;29.05;;;;;;;;;;1888018;76;21071;-83
2022/10/24 14:31:43;;;;;;;34.38;27.05;;;;;;;;;;1891071;75;21154;-83
2022/10/24 14:34:15;;;;;;;40.83;27.52;;;;;;;;;;1886559;74;21184;-83
2022/10/24 14:36:49;;;;;;;33.95;26.23;;;;;;;;;;1890177;74;21076;-84
2022/10/24 14:39:23;;;;;;;39.33;27.27;;;;;;;;;;1887903;75;21683;-83
2022/10/24 14:41:57;;;;;;;34.95;28.30;;;;;;;;;;1877016;76;21204;-84
2022/10/24 14:44:33;;;;;;;37.30;28.05;;;;;;;;;;1873146;74;21134;-82
2022/10/24 14:47:10;;;;;;;38.17;29.42;;;;;;;;;;1887429;74;21166;-84
2022/10/24 14:49:40;;;;;;;40.35;29.65;;;;;;;;;;1879903;76;21063;-82
2022/10/24 14:52:12;;;;;;;36.50;28.45;;;;;;;;;;1892506;76;21554;-83
2022/10/24 14:55:01;;;;;;;37.33;28.52;;;;;;;;;;1891936;75;21134;-83
2022/10/24 14:57:25;;;;;;;39.40;28.02;;;;;;;;;;1867614;74;21130;-83
2022/10/24 14:59:56;;;;;;;35.60;27.62;;;;;;;;;;1864936;76;21123;-84